sensor_id;sensor_type;location;lat;lon;timestamp;P1;durP1;ratioP1;P2;durP2;ratioP2
53313;SDS011;39202;51.468;7.146;2023-04-10T00:02:00;1.55;;;1.50;;
53313;SDS011;39202;51.468;7.146;2023-04-10T00:07:02;1.75;;;1.65;;
53313;SDS011;39202;51.468;7.146;2023-04-10T00:12:05;1.70;;;1.60;;
53313;SDS011;39202;51.468;7.146;2023-04-10T00:17:07;1.70;;;1.60;;
53313;SDS011;39202;51.468;7.146;2023-04-10T00:22:09;1.83;;;1.73;;
53313;SDS011;39202;51.468;7.146;2023-04-10T00:27:12;1.65;;;1.55;;
53313;SDS011;39202;51.468;7.146;2023-04-10T00:32:13;1.80;;;1.70;;
53313;SDS011;39202;51.468;7.146;2023-04-10T00:37:15;1.80;;;1.70;;
53313;SDS011;39202;51.468;7.146;2023-04-10T00:42:19;2.00;;;1.90;;
53313;SDS011;39202;51.468;7.146;2023-04-10T00:47:20;1.67;;;1.58;;
53313;SDS011;39202;51.468;7.146;2023-04-10T00:52:22;1.50;;;1.50;;
53313;SDS011;39202;51.468;7.146;2023-04-10T00:57:27;1.80;;;1.70;;
53313;SDS011;39202;51.468;7.146;2023-04-10T01:02:29;1.73;;;1.63;;
53313;SDS011;39202;51.468;7.146;2023-04-10T01:07:34;1.73;;;1.63;;
53313;SDS011;39202;51.468;7.146;2023-04-10T01:12:52;1.73;;;1.63;;
53313;SDS011;39202;51.468;7.146;2023-04-10T01:17:58;1.67;;;1.58;;
53313;SDS011;39202;51.468;7.146;2023-04-10T01:28:58;1.90;;;1.80;;
53313;SDS011;39202;51.468;7.146;2023-04-10T01:34:03;1.77;;;1.67;;
53313;SDS011;39202;51.468;7.146;2023-04-10T01:39:07;1.60;;;1.50;;
53313;SDS011;39202;51.468;7.146;2023-04-10T01:44:11;1.70;;;1.60;;
53313;SDS011;39202;51.468;7.146;2023-04-10T01:49:15;1.60;;;1.50;;
53313;SDS011;39202;51.468;7.146;2023-04-10T01:54:18;1.70;;;1.60;;
53313;SDS011;39202;51.468;7.146;2023-04-10T01:59:21;1.73;;;1.63;;
53313;SDS011;39202;51.468;7.146;2023-04-10T02:04:23;1.67;;;1.58;;
53313;SDS011;39202;51.468;7.146;2023-04-10T02:09:29;1.80;;;1.70;;
53313;SDS011;39202;51.468;7.146;2023-04-10T02:14:39;1.63;;;1.52;;
53313;SDS011;39202;51.468;7.146;2023-04-10T02:19:44;1.60;;;1.50;;
53313;SDS011;39202;51.468;7.146;2023-04-10T02:24:48;1.60;;;1.50;;
53313;SDS011;39202;51.468;7.146;2023-04-10T02:29:51;1.70;;;1.60;;
53313;SDS011;39202;51.468;7.146;2023-04-10T02:34:53;1.90;;;1.80;;
53313;SDS011;39202;51.468;7.146;2023-04-10T02:39:55;1.70;;;1.60;;
53313;SDS011;39202;51.468;7.146;2023-04-10T02:44:58;1.90;;;1.80;;
53313;SDS011;39202;51.468;7.146;2023-04-10T02:50:00;2.00;;;1.90;;
53313;SDS011;39202;51.468;7.146;2023-04-10T02:55:02;1.70;;;1.60;;
53313;SDS011;39202;51.468;7.146;2023-04-10T03:00:06;1.70;;;1.60;;
53313;SDS011;39202;51.468;7.146;2023-04-10T03:05:09;1.70;;;1.60;;
53313;SDS011;39202;51.468;7.146;2023-04-10T03:10:11;1.80;;;1.70;;
53313;SDS011;39202;51.468;7.146;2023-04-10T03:15:14;1.55;;;1.52;;
53313;SDS011;39202;51.468;7.146;2023-04-10T03:20:15;1.70;;;1.60;;
53313;SDS011;39202;51.468;7.146;2023-04-10T03:25:17;1.77;;;1.67;;
53313;SDS011;39202;51.468;7.146;2023-04-10T03:30:21;1.80;;;1.70;;
53313;SDS011;39202;51.468;7.146;2023-04-10T03:35:22;1.80;;;1.70;;
53313;SDS011;39202;51.468;7.146;2023-04-10T03:40:24;1.90;;;1.80;;
53313;SDS011;39202;51.468;7.146;2023-04-10T03:45:27;1.80;;;1.70;;
53313;SDS011;39202;51.468;7.146;2023-04-10T03:50:29;1.67;;;1.58;;
53313;SDS011;39202;51.468;7.146;2023-04-10T03:55:31;1.90;;;1.80;;
53313;SDS011;39202;51.468;7.146;2023-04-10T04:00:34;1.88;;;1.77;;
53313;SDS011;39202;51.468;7.146;2023-04-10T04:05:36;1.58;;;1.52;;
53313;SDS011;39202;51.468;7.146;2023-04-10T04:10:38;1.80;;;1.70;;
53313;SDS011;39202;51.468;7.146;2023-04-10T04:15:41;1.90;;;1.80;;
53313;SDS011;39202;51.468;7.146;2023-04-10T04:20:42;1.80;;;1.70;;
53313;SDS011;39202;51.468;7.146;2023-04-10T04:25:44;1.88;;;1.77;;
53313;SDS011;39202;51.468;7.146;2023-04-10T04:30:47;1.80;;;1.70;;
53313;SDS011;39202;51.468;7.146;2023-04-10T04:35:50;1.80;;;1.70;;
53313;SDS011;39202;51.468;7.146;2023-04-10T04:40:51;1.88;;;1.77;;
53313;SDS011;39202;51.468;7.146;2023-04-10T04:45:54;1.85;;;1.75;;
53313;SDS011;39202;51.468;7.146;2023-04-10T04:50:56;1.40;;;1.40;;
53313;SDS011;39202;51.468;7.146;2023-04-10T04:55:58;1.75;;;1.67;;
53313;SDS011;39202;51.468;7.146;2023-04-10T05:01:01;1.90;;;1.80;;
53313;SDS011;39202;51.468;7.146;2023-04-10T05:06:03;1.80;;;1.70;;
53313;SDS011;39202;51.468;7.146;2023-04-10T05:11:05;1.80;;;1.70;;
53313;SDS011;39202;51.468;7.146;2023-04-10T05:16:09;1.80;;;1.70;;
53313;SDS011;39202;51.468;7.146;2023-04-10T05:21:10;1.70;;;1.60;;
53313;SDS011;39202;51.468;7.146;2023-04-10T05:26:12;1.80;;;1.70;;
53313;SDS011;39202;51.468;7.146;2023-04-10T05:31:15;1.70;;;1.60;;
53313;SDS011;39202;51.468;7.146;2023-04-10T05:36:17;1.85;;;1.75;;
53313;SDS011;39202;51.468;7.146;2023-04-10T05:41:19;1.70;;;1.60;;
53313;SDS011;39202;51.468;7.146;2023-04-10T05:46:23;1.50;;;1.50;;
53313;SDS011;39202;51.468;7.146;2023-04-10T05:51:24;1.80;;;1.70;;
53313;SDS011;39202;51.468;7.146;2023-04-10T05:56:26;1.85;;;1.75;;
53313;SDS011;39202;51.468;7.146;2023-04-10T06:01:29;1.33;;;1.30;;
53313;SDS011;39202;51.468;7.146;2023-04-10T06:06:31;1.70;;;1.60;;
53313;SDS011;39202;51.468;7.146;2023-04-10T06:11:33;1.60;;;1.60;;
53313;SDS011;39202;51.468;7.146;2023-04-10T06:16:37;1.60;;;1.50;;
53313;SDS011;39202;51.468;7.146;2023-04-10T06:21:38;1.55;;;1.55;;
53313;SDS011;39202;51.468;7.146;2023-04-10T06:26:40;1.65;;;1.55;;
53313;SDS011;39202;51.468;7.146;2023-04-10T06:31:43;1.55;;;1.45;;
53313;SDS011;39202;51.468;7.146;2023-04-10T06:36:45;1.55;;;1.50;;
53313;SDS011;39202;51.468;7.146;2023-04-10T06:41:46;1.73;;;1.63;;
53313;SDS011;39202;51.468;7.146;2023-04-10T06:46:50;1.70;;;1.60;;
53313;SDS011;39202;51.468;7.146;2023-04-10T06:51:51;1.45;;;1.45;;
53313;SDS011;39202;51.468;7.146;2023-04-10T06:56:53;1.40;;;1.40;;
53313;SDS011;39202;51.468;7.146;2023-04-10T07:01:59;1.52;;;1.48;;
53313;SDS011;39202;51.468;7.146;2023-04-10T07:07:00;1.30;;;1.30;;
53313;SDS011;39202;51.468;7.146;2023-04-10T07:12:02;1.40;;;1.40;;
53313;SDS011;39202;51.468;7.146;2023-04-10T07:17:06;1.63;;;1.52;;
53313;SDS011;39202;51.468;7.146;2023-04-10T07:22:08;1.38;;;1.33;;
53313;SDS011;39202;51.468;7.146;2023-04-10T07:27:10;1.20;;;1.20;;
53313;SDS011;39202;51.468;7.146;2023-04-10T07:32:14;1.45;;;1.45;;
53313;SDS011;39202;51.468;7.146;2023-04-10T07:37:16;1.17;;;1.17;;
53313;SDS011;39202;51.468;7.146;2023-04-10T07:42:18;1.25;;;1.23;;
53313;SDS011;39202;51.468;7.146;2023-04-10T07:47:22;1.30;;;1.30;;
53313;SDS011;39202;51.468;7.146;2023-04-10T07:52:24;1.30;;;1.30;;
53313;SDS011;39202;51.468;7.146;2023-04-10T07:57:26;1.40;;;1.40;;
53313;SDS011;39202;51.468;7.146;2023-04-10T08:02:29;1.30;;;1.30;;
53313;SDS011;39202;51.468;7.146;2023-04-10T08:07:30;1.55;;;1.45;;
53313;SDS011;39202;51.468;7.146;2023-04-10T08:12:32;1.50;;;1.50;;
53313;SDS011;39202;51.468;7.146;2023-04-10T08:17:35;1.40;;;1.40;;
53313;SDS011;39202;51.468;7.146;2023-04-10T08:22:37;1.38;;;1.38;;
53313;SDS011;39202;51.468;7.146;2023-04-10T08:27:39;1.50;;;1.50;;
53313;SDS011;39202;51.468;7.146;2023-04-10T08:32:42;1.65;;;1.55;;
53313;SDS011;39202;51.468;7.146;2023-04-10T08:37:44;1.60;;;1.50;;
53313;SDS011;39202;51.468;7.146;2023-04-10T08:42:46;1.35;;;1.30;;
53313;SDS011;39202;51.468;7.146;2023-04-10T08:47:49;1.80;;;1.70;;
53313;SDS011;39202;51.468;7.146;2023-04-10T08:52:52;1.50;;;1.48;;
53313;SDS011;39202;51.468;7.146;2023-04-10T08:57:56;1.38;;;1.38;;
53313;SDS011;39202;51.468;7.146;2023-04-10T09:02:59;1.63;;;1.52;;
53313;SDS011;39202;51.468;7.146;2023-04-10T09:08:03;1.30;;;1.30;;
53313;SDS011;39202;51.468;7.146;2023-04-10T09:13:07;1.50;;;1.50;;
53313;SDS011;39202;51.468;7.146;2023-04-10T09:18:11;1.33;;;1.33;;
53313;SDS011;39202;51.468;7.146;2023-04-10T09:23:18;1.40;;;1.40;;
53313;SDS011;39202;51.468;7.146;2023-04-10T09:28:21;1.60;;;1.50;;
53313;SDS011;39202;51.468;7.146;2023-04-10T09:33:24;1.25;;;1.25;;
53313;SDS011;39202;51.468;7.146;2023-04-10T09:38:29;1.30;;;1.30;;
53313;SDS011;39202;51.468;7.146;2023-04-10T09:43:30;1.27;;;1.27;;
53313;SDS011;39202;51.468;7.146;2023-04-10T09:48:33;1.10;;;1.10;;
53313;SDS011;39202;51.468;7.146;2023-04-10T09:53:47;1.55;;;1.45;;
53313;SDS011;39202;51.468;7.146;2023-04-10T09:58:49;1.30;;;1.30;;
53313;SDS011;39202;51.468;7.146;2023-04-10T10:03:55;1.40;;;1.40;;
53313;SDS011;39202;51.468;7.146;2023-04-10T10:09:02;1.30;;;1.30;;
53313;SDS011;39202;51.468;7.146;2023-04-10T10:14:06;1.30;;;1.30;;
53313;SDS011;39202;51.468;7.146;2023-04-10T10:19:11;1.25;;;1.25;;
53313;SDS011;39202;51.468;7.146;2023-04-10T10:24:21;1.20;;;1.20;;
53313;SDS011;39202;51.468;7.146;2023-04-10T10:29:25;1.30;;;1.30;;
53313;SDS011;39202;51.468;7.146;2023-04-10T10:34:33;1.30;;;1.30;;
53313;SDS011;39202;51.468;7.146;2023-04-10T10:39:41;1.30;;;1.30;;
53313;SDS011;39202;51.468;7.146;2023-04-10T10:44:51;1.25;;;1.25;;
53313;SDS011;39202;51.468;7.146;2023-04-10T10:50:02;1.15;;;1.15;;
53313;SDS011;39202;51.468;7.146;2023-04-10T11:06:11;1.30;;;1.30;;
53313;SDS011;39202;51.468;7.146;2023-04-10T11:11:16;1.30;;;1.30;;
53313;SDS011;39202;51.468;7.146;2023-04-10T11:16:19;1.30;;;1.30;;
53313;SDS011;39202;51.468;7.146;2023-04-10T11:21:23;1.30;;;1.30;;
53313;SDS011;39202;51.468;7.146;2023-04-10T11:26:35;1.20;;;1.20;;
53313;SDS011;39202;51.468;7.146;2023-04-10T11:31:38;1.27;;;1.27;;
53313;SDS011;39202;51.468;7.146;2023-04-10T11:36:42;1.10;;;1.10;;
53313;SDS011;39202;51.468;7.146;2023-04-10T11:41:45;1.00;;;1.00;;
53313;SDS011;39202;51.468;7.146;2023-04-10T11:46:48;1.20;;;1.20;;
53313;SDS011;39202;51.468;7.146;2023-04-10T11:51:52;1.08;;;1.08;;
53313;SDS011;39202;51.468;7.146;2023-04-10T11:56:55;1.20;;;1.20;;
53313;SDS011;39202;51.468;7.146;2023-04-10T12:02:03;1.30;;;1.30;;
53313;SDS011;39202;51.468;7.146;2023-04-10T12:07:07;1.20;;;1.20;;
53313;SDS011;39202;51.468;7.146;2023-04-10T12:12:10;1.10;;;1.10;;
53313;SDS011;39202;51.468;7.146;2023-04-10T12:17:11;1.20;;;1.20;;
53313;SDS011;39202;51.468;7.146;2023-04-10T12:22:15;1.15;;;1.15;;
53313;SDS011;39202;51.468;7.146;2023-04-10T12:27:17;1.30;;;1.30;;
53313;SDS011;39202;51.468;7.146;2023-04-10T12:32:21;1.00;;;1.00;;
53313;SDS011;39202;51.468;7.146;2023-04-10T12:37:24;1.10;;;1.10;;
53313;SDS011;39202;51.468;7.146;2023-04-10T12:42:46;1.08;;;1.08;;
53313;SDS011;39202;51.468;7.146;2023-04-10T12:47:48;1.13;;;1.10;;
53313;SDS011;39202;51.468;7.146;2023-04-10T12:53:01;1.17;;;1.17;;
53313;SDS011;39202;51.468;7.146;2023-04-10T12:58:14;1.20;;;1.20;;
53313;SDS011;39202;51.468;7.146;2023-04-10T13:03:17;1.05;;;1.05;;
53313;SDS011;39202;51.468;7.146;2023-04-10T13:08:21;1.00;;;1.00;;
53313;SDS011;39202;51.468;7.146;2023-04-10T13:13:22;1.00;;;1.00;;
53313;SDS011;39202;51.468;7.146;2023-04-10T13:18:24;1.00;;;1.00;;
53313;SDS011;39202;51.468;7.146;2023-04-10T13:23:27;1.00;;;1.00;;
53313;SDS011;39202;51.468;7.146;2023-04-10T13:28:29;1.08;;;1.08;;
53313;SDS011;39202;51.468;7.146;2023-04-10T13:33:31;0.82;;;0.82;;
53313;SDS011;39202;51.468;7.146;2023-04-10T13:38:34;1.20;;;1.20;;
53313;SDS011;39202;51.468;7.146;2023-04-10T13:43:35;1.08;;;1.08;;
53313;SDS011;39202;51.468;7.146;2023-04-10T13:48:37;1.10;;;1.10;;
53313;SDS011;39202;51.468;7.146;2023-04-10T13:53:41;1.08;;;1.08;;
53313;SDS011;39202;51.468;7.146;2023-04-10T13:58:44;1.00;;;1.00;;
53313;SDS011;39202;51.468;7.146;2023-04-10T14:03:46;1.10;;;1.10;;
53313;SDS011;39202;51.468;7.146;2023-04-10T14:08:49;1.10;;;1.10;;
53313;SDS011;39202;51.468;7.146;2023-04-10T14:13:50;4.30;;;1.35;;
53313;SDS011;39202;51.468;7.146;2023-04-10T14:18:52;1.60;;;1.50;;
53313;SDS011;39202;51.468;7.146;2023-04-10T14:23:55;1.50;;;1.40;;
53313;SDS011;39202;51.468;7.146;2023-04-10T14:28:58;1.63;;;1.13;;
53313;SDS011;39202;51.468;7.146;2023-04-10T14:34:00;1.52;;;1.42;;
53313;SDS011;39202;51.468;7.146;2023-04-10T14:39:03;1.30;;;1.30;;
53313;SDS011;39202;51.468;7.146;2023-04-10T14:44:05;1.50;;;1.40;;
53313;SDS011;39202;51.468;7.146;2023-04-10T14:49:07;1.63;;;1.30;;
53313;SDS011;39202;51.468;7.146;2023-04-10T14:54:10;1.08;;;1.08;;
53313;SDS011;39202;51.468;7.146;2023-04-10T14:59:12;1.30;;;1.30;;
53313;SDS011;39202;51.468;7.146;2023-04-10T15:04:14;1.25;;;1.25;;
53313;SDS011;39202;51.468;7.146;2023-04-10T15:09:17;1.10;;;1.10;;
53313;SDS011;39202;51.468;7.146;2023-04-10T15:14:19;1.20;;;1.20;;
53313;SDS011;39202;51.468;7.146;2023-04-10T15:19:21;1.27;;;1.27;;
53313;SDS011;39202;51.468;7.146;2023-04-10T15:24:24;1.08;;;1.08;;
53313;SDS011;39202;51.468;7.146;2023-04-10T15:29:26;1.10;;;1.10;;
53313;SDS011;39202;51.468;7.146;2023-04-10T15:34:28;1.10;;;1.10;;
53313;SDS011;39202;51.468;7.146;2023-04-10T15:39:31;1.23;;;1.23;;
53313;SDS011;39202;51.468;7.146;2023-04-10T15:44:32;1.17;;;1.17;;
53313;SDS011;39202;51.468;7.146;2023-04-10T15:49:34;1.10;;;1.10;;
53313;SDS011;39202;51.468;7.146;2023-04-10T15:54:38;1.33;;;1.25;;
53313;SDS011;39202;51.468;7.146;2023-04-10T15:59:39;1.30;;;1.30;;
53313;SDS011;39202;51.468;7.146;2023-04-10T16:04:41;1.10;;;1.10;;
53313;SDS011;39202;51.468;7.146;2023-04-10T16:09:44;1.38;;;1.30;;
53313;SDS011;39202;51.468;7.146;2023-04-10T16:14:46;0.98;;;0.98;;
53313;SDS011;39202;51.468;7.146;2023-04-10T16:19:48;1.15;;;1.15;;
53313;SDS011;39202;51.468;7.146;2023-04-10T16:24:54;1.17;;;1.17;;
53313;SDS011;39202;51.468;7.146;2023-04-10T16:29:56;1.10;;;1.10;;
53313;SDS011;39202;51.468;7.146;2023-04-10T16:34:58;1.20;;;1.20;;
53313;SDS011;39202;51.468;7.146;2023-04-10T16:40:01;1.00;;;1.00;;
53313;SDS011;39202;51.468;7.146;2023-04-10T16:45:03;1.10;;;1.10;;
53313;SDS011;39202;51.468;7.146;2023-04-10T16:50:07;0.95;;;0.95;;
53313;SDS011;39202;51.468;7.146;2023-04-10T16:55:11;1.10;;;1.10;;
53313;SDS011;39202;51.468;7.146;2023-04-10T17:00:13;1.10;;;1.10;;
53313;SDS011;39202;51.468;7.146;2023-04-10T17:05:15;1.00;;;1.00;;
53313;SDS011;39202;51.468;7.146;2023-04-10T17:10:18;1.00;;;1.00;;
53313;SDS011;39202;51.468;7.146;2023-04-10T17:15:20;1.02;;;1.02;;
53313;SDS011;39202;51.468;7.146;2023-04-10T17:20:22;1.23;;;1.23;;
53313;SDS011;39202;51.468;7.146;2023-04-10T17:25:25;1.20;;;1.20;;
53313;SDS011;39202;51.468;7.146;2023-04-10T17:30:26;1.00;;;1.00;;
53313;SDS011;39202;51.468;7.146;2023-04-10T17:35:28;1.10;;;1.10;;
53313;SDS011;39202;51.468;7.146;2023-04-10T17:40:31;1.10;;;1.10;;
53313;SDS011;39202;51.468;7.146;2023-04-10T17:45:34;1.00;;;1.00;;
53313;SDS011;39202;51.468;7.146;2023-04-10T17:50:37;0.95;;;0.95;;
53313;SDS011;39202;51.468;7.146;2023-04-10T17:55:40;1.00;;;1.00;;
53313;SDS011;39202;51.468;7.146;2023-04-10T18:00:42;0.90;;;0.90;;
53313;SDS011;39202;51.468;7.146;2023-04-10T18:05:43;1.00;;;1.00;;
53313;SDS011;39202;51.468;7.146;2023-04-10T18:10:46;1.25;;;1.17;;
53313;SDS011;39202;51.468;7.146;2023-04-10T18:15:48;1.00;;;1.00;;
53313;SDS011;39202;51.468;7.146;2023-04-10T18:20:50;0.90;;;0.90;;
53313;SDS011;39202;51.468;7.146;2023-04-10T18:25:53;1.17;;;1.17;;
53313;SDS011;39202;51.468;7.146;2023-04-10T18:30:55;0.90;;;0.90;;
53313;SDS011;39202;51.468;7.146;2023-04-10T18:35:58;1.00;;;1.00;;
53313;SDS011;39202;51.468;7.146;2023-04-10T18:41:01;1.10;;;1.10;;
53313;SDS011;39202;51.468;7.146;2023-04-10T18:46:03;0.95;;;0.95;;
53313;SDS011;39202;51.468;7.146;2023-04-10T18:51:05;0.80;;;0.80;;
53313;SDS011;39202;51.468;7.146;2023-04-10T18:56:08;0.85;;;0.85;;
53313;SDS011;39202;51.468;7.146;2023-04-10T19:01:10;1.10;;;1.10;;
53313;SDS011;39202;51.468;7.146;2023-04-10T19:06:12;1.10;;;1.10;;
53313;SDS011;39202;51.468;7.146;2023-04-10T19:11:15;1.08;;;1.08;;
53313;SDS011;39202;51.468;7.146;2023-04-10T19:16:17;0.90;;;0.90;;
53313;SDS011;39202;51.468;7.146;2023-04-10T19:21:19;0.88;;;0.88;;
53313;SDS011;39202;51.468;7.146;2023-04-10T19:26:22;0.95;;;0.95;;
53313;SDS011;39202;51.468;7.146;2023-04-10T19:31:24;1.10;;;1.10;;
53313;SDS011;39202;51.468;7.146;2023-04-10T19:36:28;0.85;;;0.85;;
53313;SDS011;39202;51.468;7.146;2023-04-10T19:41:31;1.00;;;1.00;;
53313;SDS011;39202;51.468;7.146;2023-04-10T19:46:33;0.90;;;0.90;;
53313;SDS011;39202;51.468;7.146;2023-04-10T19:51:35;1.00;;;1.00;;
53313;SDS011;39202;51.468;7.146;2023-04-10T19:56:38;0.88;;;0.88;;
53313;SDS011;39202;51.468;7.146;2023-04-10T20:01:40;1.00;;;1.00;;
53313;SDS011;39202;51.468;7.146;2023-04-10T20:06:41;1.10;;;1.10;;
53313;SDS011;39202;51.468;7.146;2023-04-10T20:11:44;0.93;;;0.93;;
53313;SDS011;39202;51.468;7.146;2023-04-10T20:16:46;1.02;;;1.02;;
53313;SDS011;39202;51.468;7.146;2023-04-10T20:21:48;1.00;;;1.00;;
53313;SDS011;39202;51.468;7.146;2023-04-10T20:26:51;1.00;;;1.00;;
53313;SDS011;39202;51.468;7.146;2023-04-10T20:31:53;0.98;;;0.98;;
53313;SDS011;39202;51.468;7.146;2023-04-10T20:36:54;1.00;;;1.00;;
53313;SDS011;39202;51.468;7.146;2023-04-10T20:41:57;0.90;;;0.90;;
53313;SDS011;39202;51.468;7.146;2023-04-10T20:46:59;0.95;;;0.95;;
53313;SDS011;39202;51.468;7.146;2023-04-10T20:52:01;1.05;;;1.05;;
53313;SDS011;39202;51.468;7.146;2023-04-10T20:57:04;0.80;;;0.80;;
53313;SDS011;39202;51.468;7.146;2023-04-10T21:02:06;1.00;;;1.00;;
53313;SDS011;39202;51.468;7.146;2023-04-10T21:07:08;0.90;;;0.90;;
53313;SDS011;39202;51.468;7.146;2023-04-10T21:12:11;0.93;;;0.93;;
53313;SDS011;39202;51.468;7.146;2023-04-10T21:17:13;0.88;;;0.88;;
53313;SDS011;39202;51.468;7.146;2023-04-10T21:22:15;0.90;;;0.90;;
53313;SDS011;39202;51.468;7.146;2023-04-10T21:27:18;0.90;;;0.90;;
53313;SDS011;39202;51.468;7.146;2023-04-10T21:32:20;1.00;;;1.00;;
53313;SDS011;39202;51.468;7.146;2023-04-10T21:37:22;1.00;;;1.00;;
53313;SDS011;39202;51.468;7.146;2023-04-10T21:42:25;0.90;;;0.90;;
53313;SDS011;39202;51.468;7.146;2023-04-10T21:47:27;0.90;;;0.90;;
53313;SDS011;39202;51.468;7.146;2023-04-10T21:52:28;0.90;;;0.90;;
53313;SDS011;39202;51.468;7.146;2023-04-10T21:57:31;0.80;;;0.80;;
53313;SDS011;39202;51.468;7.146;2023-04-10T22:02:33;0.88;;;0.88;;
53313;SDS011;39202;51.468;7.146;2023-04-10T22:07:35;0.85;;;0.85;;
53313;SDS011;39202;51.468;7.146;2023-04-10T22:12:38;0.98;;;0.98;;
53313;SDS011;39202;51.468;7.146;2023-04-10T22:17:40;0.85;;;0.85;;
53313;SDS011;39202;51.468;7.146;2023-04-10T22:22:41;0.90;;;0.90;;
53313;SDS011;39202;51.468;7.146;2023-04-10T22:27:44;0.90;;;0.90;;
53313;SDS011;39202;51.468;7.146;2023-04-10T22:32:47;0.82;;;0.82;;
53313;SDS011;39202;51.468;7.146;2023-04-10T22:37:49;0.80;;;0.80;;
53313;SDS011;39202;51.468;7.146;2023-04-10T22:42:52;0.90;;;0.90;;
53313;SDS011;39202;51.468;7.146;2023-04-10T22:47:54;0.90;;;0.90;;
53313;SDS011;39202;51.468;7.146;2023-04-10T22:52:56;1.02;;;1.00;;
53313;SDS011;39202;51.468;7.146;2023-04-10T22:57:59;0.90;;;0.90;;
53313;SDS011;39202;51.468;7.146;2023-04-10T23:03:00;1.00;;;1.00;;
53313;SDS011;39202;51.468;7.146;2023-04-10T23:08:02;1.00;;;1.00;;
53313;SDS011;39202;51.468;7.146;2023-04-10T23:13:05;0.90;;;0.90;;
53313;SDS011;39202;51.468;7.146;2023-04-10T23:18:07;0.80;;;0.80;;
53313;SDS011;39202;51.468;7.146;2023-04-10T23:23:11;1.00;;;1.00;;
53313;SDS011;39202;51.468;7.146;2023-04-10T23:28:14;0.90;;;0.90;;
53313;SDS011;39202;51.468;7.146;2023-04-10T23:33:15;0.90;;;0.90;;
53313;SDS011;39202;51.468;7.146;2023-04-10T23:38:17;0.90;;;0.90;;
53313;SDS011;39202;51.468;7.146;2023-04-10T23:43:21;0.98;;;0.98;;
53313;SDS011;39202;51.468;7.146;2023-04-10T23:48:23;0.90;;;0.90;;
53313;SDS011;39202;51.468;7.146;2023-04-10T23:53:25;0.90;;;0.90;;
53313;SDS011;39202;51.468;7.146;2023-04-10T23:58:28;0.90;;;0.90;;
